Time;durP1;ratioP1;P1;durP2;ratioP2;P2;SDS_P1;SDS_P2;PMS_P1;PMS_P2;Temp;Humidity;BMP_temperature;BMP_pressure;BME280_temperature;BME280_humidity;BME280_pressure;Samples;Min_cycle;Max_cycle;Signal;HPM_P1;HPM_P2
2022/07/31 00:01:53;;;;;;;22.65;13.77;;;;;;;29.58;78.87;97454.72;5023020;28;20123;-67
2022/07/31 00:04:35;;;;;;;20.58;13.88;;;;;;;29.93;78.25;97453.72;5026040;28;20050;-68
2022/07/31 00:07:24;;;;;;;17.98;12.68;;;;;;;29.91;78.48;97456.84;5026050;28;21291;-68
2022/07/31 00:10:07;;;;;;;18.63;13.38;;;;;;;29.79;78.30;97460.63;5027327;28;20057;-68
2022/07/31 00:12:57;;;;;;;18.40;13.45;;;;;;;29.61;79.42;97443.72;5027369;28;20138;-68
2022/07/31 00:15:52;;;;;;;25.27;14.18;;;;;;;29.79;79.07;97448.75;5020448;28;20119;-68
2022/07/31 00:18:28;;;;;;;26.10;16.00;;;;;;;29.70;78.93;97457.28;5022875;28;20050;-67
2022/07/31 00:21:23;;;;;;;22.63;15.93;;;;;;;29.45;80.28;97449.38;5007472;28;20054;-68
2022/07/31 00:23:59;;;;;;;25.45;16.60;;;;;;;29.60;79.99;97457.94;5011363;28;20625;-68
2022/07/31 00:26:46;;;;;;;22.08;16.02;;;;;;;29.99;78.39;97460.50;5026637;28;20057;-68
2022/07/31 00:29:32;;;;;;;25.60;17.80;;;;;;;29.87;79.40;97458.75;5026230;28;20068;-68
2022/07/31 00:32:21;;;;;;;30.85;19.02;;;;;;;29.76;79.54;97466.09;5024960;28;20511;-68
2022/07/31 00:35:04;;;;;;;27.17;18.10;;;;;;;29.82;79.36;97462.63;4995003;28;20049;-68
2022/07/31 00:37:52;;;;;;;30.15;19.42;;;;;;;29.73;79.59;97461.28;4993957;28;20057;-68
2022/07/31 00:41:08;;;;;;;34.15;21.25;;;;;;;29.65;79.89;97449.28;5025153;28;20362;-67
2022/07/31 00:43:57;;;;;;;31.75;21.27;;;;;;;29.99;79.26;97457.75;5026955;28;20045;-68
2022/07/31 00:46:40;;;;;;;26.20;19.42;;;;;;;30.14;78.42;97456.75;5027384;28;20080;-67
2022/07/31 00:49:29;;;;;;;26.83;18.90;;;;;;;29.97;77.90;97460.88;5027677;28;20053;-68
2022/07/31 00:52:18;;;;;;;25.25;15.90;;;;;;;29.80;78.86;97450.34;5008146;28;20056;-66
2022/07/31 00:55:08;;;;;;;21.65;14.98;;;;;;;29.84;78.15;97457.50;4990426;28;20054;-68
2022/07/31 00:57:49;;;;;;;19.95;13.50;;;;;;;29.91;78.58;97456.03;5007321;28;20057;-68
2022/07/31 01:00:38;;;;;;;20.23;14.05;;;;;;;29.96;77.89;97455.72;5005869;28;20046;-68
2022/07/31 01:03:20;;;;;;;20.95;15.20;;;;;;;29.97;77.94;97457.31;5002674;28;20530;-67
2022/07/31 01:06:09;;;;;;;17.80;14.73;;;;;;;30.04;77.87;97468.50;5025362;28;20049;-67
2022/07/31 01:08:51;;;;;;;16.45;13.48;;;;;;;30.17;77.22;97458.78;5009246;28;20042;-68
2022/07/31 01:11:58;;;;;;;19.45;12.95;;;;;;;30.11;77.70;97460.28;5023075;28;20618;-68
2022/07/31 01:14:45;;;;;;;13.70;11.50;;;;;;;30.23;77.50;97462.03;5026245;28;20128;-68
2022/07/31 01:17:35;;;;;;;17.63;13.13;;;;;;;29.93;77.99;97475.84;5026197;28;20053;-68
2022/07/31 01:20:17;;;;;;;17.58;12.68;;;;;;;29.90;78.13;97473.81;5007795;28;20050;-68
2022/07/31 01:23:21;;;;;;;19.02;11.98;;;;;;;30.13;78.13;97473.72;5005969;28;20081;-68
2022/07/31 01:26:53;;;;;;;17.57;11.17;;;;;;;30.01;78.52;97477.53;5007487;28;20156;-67
2022/07/31 01:29:46;;;;;;;13.13;9.90;;;;;;;30.13;77.35;97480.06;4994359;28;20050;-68
2022/07/31 01:32:53;;;;;;;10.80;8.50;;;;;;;30.04;76.98;97483.13;5008454;28;20065;-68
2022/07/31 01:35:55;;;;;;;13.23;8.90;;;;;;;30.15;76.78;97486.03;5005659;28;20120;-66
2022/07/31 01:38:37;;;;;;;10.85;8.57;;;;;;;29.84;77.54;97487.94;5008073;28;20119;-68
2022/07/31 01:41:37;;;;;;;14.80;8.27;;;;;;;30.22;76.78;97494.41;5007519;28;20059;-68
2022/07/31 01:44:34;;;;;;;9.23;6.45;;;;;;;29.96;76.98;97491.66;4986675;28;20054;-68
2022/07/31 01:47:20;;;;;;;12.20;7.18;;;;;;;29.97;76.88;97487.75;5003942;28;20058;-67
2022/07/31 01:50:10;;;;;;;11.25;6.80;;;;;;;30.08;76.82;97490.66;5002461;28;20160;-68
2022/07/31 01:53:22;;;;;;;8.40;5.78;;;;;;;30.15;75.88;97499.06;4986201;28;20618;-68
2022/07/31 01:56:08;;;;;;;9.88;6.55;;;;;;;30.18;76.47;97507.41;5003248;28;20041;-68
2022/07/31 01:58:58;;;;;;;10.65;5.63;;;;;;;30.14;75.61;97520.41;5002945;28;20045;-67
2022/07/31 02:01:49;;;;;;;12.70;6.15;;;;;;;29.94;76.70;97510.59;4973115;28;20060;-68
2022/07/31 02:04:39;;;;;;;9.70;5.47;;;;;;;30.53;75.10;97517.41;4988573;28;20389;-68
2022/07/31 02:07:24;;;;;;;9.77;6.38;;;;;;;30.30;75.62;97524.97;4988096;28;20058;-68
2022/07/31 02:10:17;;;;;;;10.88;5.75;;;;;;;30.77;74.77;97516.13;4981931;28;20050;-69
2022/07/31 02:13:02;;;;;;;11.13;6.03;;;;;;;30.67;74.70;97529.84;4968466;28;20125;-68
2022/07/31 02:15:51;;;;;;;8.20;5.38;;;;;;;30.85;73.81;97530.84;4965538;28;20046;-68
2022/07/31 02:18:34;;;;;;;12.35;7.47;;;;;;;30.96;75.01;97525.47;4972488;28;20141;-67
2022/07/31 02:21:31;;;;;;;11.32;7.40;;;;;;;30.79;75.99;97518.53;4968548;28;20057;-68
2022/07/31 02:24:27;;;;;;;15.13;7.75;;;;;;;30.81;76.21;97518.94;4985164;28;20054;-68
2022/07/31 02:27:06;;;;;;;13.18;7.97;;;;;;;30.67;76.74;97508.50;4997849;28;20053;-68
2022/07/31 02:30:19;;;;;;;15.27;8.60;;;;;;;30.32;78.32;97508.81;4987988;28;20050;-68
2022/07/31 02:33:02;;;;;;;14.20;8.55;;;;;;;30.63;77.83;97502.91;4988531;28;20092;-68
2022/07/31 02:36:04;;;;;;;18.80;8.00;;;;;;;30.76;77.34;97511.75;4987858;28;20057;-68
2022/07/31 02:38:42;;;;;;;12.80;8.20;;;;;;;30.45;78.12;97510.97;5004386;28;20042;-69
2022/07/31 02:41:31;;;;;;;16.17;7.88;;;;;;;30.71;78.08;97505.78;4987856;28;20057;-67
2022/07/31 02:44:27;;;;;;;12.30;8.27;;;;;;;30.75;77.52;97507.41;5000459;28;20038;-69
2022/07/31 02:47:04;;;;;;;12.90;8.45;;;;;;;30.85;77.96;97517.00;4997405;28;20046;-68
2022/07/31 02:49:59;;;;;;;12.35;8.40;;;;;;;30.74;77.90;97527.16;5020334;28;20499;-69
2022/07/31 02:52:37;;;;;;;13.90;8.90;;;;;;;30.80;78.27;97532.00;5006645;28;20068;-68
2022/07/31 02:55:26;;;;;;;13.65;8.77;;;;;;;30.91;78.76;97554.31;5023947;28;20046;-69
2022/07/31 02:58:09;;;;;;;14.55;8.65;;;;;;;31.01;77.82;97556.41;5006854;28;20671;-68
2022/07/31 03:01:05;;;;;;;17.80;9.23;;;;;;;30.70;77.72;97578.94;5026548;28;20043;-68
2022/07/31 03:03:49;;;;;;;16.40;10.05;;;;;;;30.55;77.96;97600.09;4996024;28;20060;-68
2022/07/31 03:06:43;;;;;;;16.92;10.15;;;;;;;30.86;76.69;97604.50;5013735;28;20049;-68
2022/07/31 03:09:19;;;;;;;16.10;9.93;;;;;;;31.08;77.53;97599.25;5028358;28;20056;-68
2022/07/31 03:12:25;;;;;;;14.90;10.90;;;;;;;30.61;78.56;97596.63;5026902;28;20228;-68
2022/07/31 03:15:09;;;;;;;17.23;10.18;;;;;;;30.92;77.40;97608.56;5026492;28;20055;-68
2022/07/31 03:18:00;;;;;;;15.48;11.45;;;;;;;30.66;78.39;97627.94;5027777;28;20041;-67
2022/07/31 03:20:52;;;;;;;24.10;13.13;;;;;;;30.28;79.63;97662.94;5008110;28;20042;-68
2022/07/31 03:23:37;;;;;;;16.60;10.95;;;;;;;29.92;80.11;97654.81;5008547;28;20069;-68
2022/07/31 03:26:28;;;;;;;16.27;10.65;;;;;;;29.53;80.47;97662.38;4991022;28;20066;-68
2022/07/31 03:29:11;;;;;;;20.05;11.07;;;;;;;29.29;80.64;97672.53;5006447;28;20133;-67
2022/07/31 03:32:20;;;;;;;14.13;9.95;;;;;;;29.16;81.01;97660.03;5007281;28;20521;-67
2022/07/31 03:35:02;;;;;;;13.90;9.43;;;;;;;28.83;79.80;97659.34;5006697;28;20428;-67
2022/07/31 03:37:51;;;;;;;12.50;7.47;;;;;;;28.41;79.28;97648.84;5010585;28;20429;-67
2022/07/31 03:40:34;;;;;;;11.68;7.38;;;;;;;28.55;80.28;97642.09;4988710;28;20553;-68
2022/07/31 03:43:30;;;;;;;10.60;6.63;;;;;;;28.56;79.24;97647.28;4991151;28;20582;-68
2022/07/31 03:46:28;;;;;;;12.43;7.60;;;;;;;28.43;79.16;97634.72;5006639;28;25038;-68
2022/07/31 03:49:17;;;;;;;9.65;6.18;;;;;;;28.88;79.02;97636.16;4991143;28;20053;-67
2022/07/31 03:51:59;;;;;;;9.15;6.50;;;;;;;28.23;79.18;97620.84;4994951;28;20052;-67
2022/07/31 03:54:52;;;;;;;9.60;6.38;;;;;;;28.48;79.69;97599.34;5005532;28;20081;-68
2022/07/31 03:57:42;;;;;;;9.95;6.40;;;;;;;28.26;81.11;97580.69;4989407;28;20444;-68
2022/07/31 04:00:33;;;;;;;10.75;6.03;;;;;;;27.87;81.58;97588.81;4989388;28;20153;-68
2022/07/31 04:03:15;;;;;;;9.00;5.88;;;;;;;28.50;81.28;97602.56;4989470;28;20060;-68
2022/07/31 04:06:35;;;;;;;10.13;6.47;;;;;;;28.62;79.99;97609.16;5008215;28;20148;-68
2022/07/31 04:09:26;;;;;;;12.85;7.03;;;;;;;28.49;79.26;97608.47;4992375;28;20085;-69
2022/07/31 04:12:11;;;;;;;13.63;6.90;;;;;;;28.56;80.01;97607.84;4990610;28;20759;-69
2022/07/31 04:15:00;;;;;;;10.70;7.00;;;;;;;28.75;79.35;97612.59;5007789;28;20120;-69
2022/07/31 04:17:42;;;;;;;8.82;7.10;;;;;;;28.78;79.29;97596.09;5006760;28;20057;-69
2022/07/31 04:20:39;;;;;;;13.32;7.47;;;;;;;28.43;81.45;97607.94;5006499;28;20046;-69
2022/07/31 04:23:22;;;;;;;13.15;7.82;;;;;;;28.43;80.35;97607.09;4993197;28;20068;-69
2022/07/31 04:26:31;;;;;;;10.32;6.85;;;;;;;28.74;80.19;97591.66;5006996;28;20380;-69
2022/07/31 04:29:20;;;;;;;9.70;6.55;;;;;;;28.94;77.70;97576.69;5002190;28;20188;-69
2022/07/31 04:32:18;;;;;;;9.93;6.38;;;;;;;28.75;78.83;97587.75;4995742;28;20550;-69
2022/07/31 04:34:59;;;;;;;11.18;6.28;;;;;;;28.25;80.49;97582.66;5016084;28;20050;-69
2022/07/31 04:37:48;;;;;;;9.18;5.90;;;;;;;29.23;80.30;97588.34;5008773;28;20045;-69
2022/07/31 04:40:40;;;;;;;6.45;5.15;;;;;;;29.38;78.74;97592.19;5026342;28;20049;-68
2022/07/31 04:43:29;;;;;;;9.07;5.40;;;;;;;29.62;77.46;97599.34;5008541;28;20061;-70
2022/07/31 04:46:19;;;;;;;7.60;5.25;;;;;;;29.54;78.02;97605.91;4987581;28;20069;-69
2022/07/31 04:49:01;;;;;;;7.90;5.50;;;;;;;29.39;76.72;97602.09;5013927;28;20057;-69
2022/07/31 04:51:56;;;;;;;6.75;4.78;;;;;;;29.46;78.50;97603.03;4999890;28;20061;-69
2022/07/31 04:54:32;;;;;;;9.05;4.57;;;;;;;29.81;77.12;97602.09;4989644;28;20056;-70
2022/07/31 04:57:27;;;;;;;8.00;5.03;;;;;;;29.41;76.79;97600.56;5008258;28;20064;-71
2022/07/31 05:00:08;;;;;;;7.00;4.60;;;;;;;29.31;75.43;97594.81;5007945;28;20050;-69
2022/07/31 05:03:03;;;;;;;6.75;4.78;;;;;;;29.62;76.08;97583.56;5007618;28;20130;-68
2022/07/31 05:05:41;;;;;;;9.40;4.90;;;;;;;29.50;75.49;97591.22;4990351;28;20434;-67
2022/07/31 05:08:30;;;;;;;9.50;4.88;;;;;;;29.58;76.97;97598.47;5008392;28;20461;-69
2022/07/31 05:11:22;;;;;;;7.97;4.50;;;;;;;29.78;74.43;97596.50;5008819;28;20152;-68
2022/07/31 05:14:12;;;;;;;10.93;4.88;;;;;;;30.68;75.67;97595.13;5008803;28;20135;-68
2022/07/31 05:16:54;;;;;;;8.50;4.80;;;;;;;30.89;70.99;97600.16;5009082;28;20106;-68
2022/07/31 05:20:05;;;;;;;6.13;4.35;;;;;;;30.95;72.66;97602.25;5022798;28;20049;-69
2022/07/31 05:23:10;;;;;;;14.00;5.65;;;;;;;30.63;73.95;97588.75;5006868;28;20152;-69
2022/07/31 05:26:10;;;;;;;10.65;6.38;;;;;;;31.00;73.67;97585.28;5018059;28;20066;-69
2022/07/31 05:28:54;;;;;;;9.23;6.70;;;;;;;31.14;70.03;97581.09;5002654;28;20150;-69
2022/07/31 05:31:50;;;;;;;9.90;6.70;;;;;;;30.48;71.42;97586.97;5011345;28;20053;-69
2022/07/31 05:34:42;;;;;;;7.57;6.00;;;;;;;30.91;72.23;97584.78;5013105;28;20041;-69
2022/07/31 05:37:24;;;;;;;10.95;8.43;;;;;;;30.78;72.15;97592.53;5012705;28;20050;-68
2022/07/31 05:40:15;;;;;;;12.77;9.07;;;;;;;30.38;74.43;97579.28;4983834;28;20050;-67
2022/07/31 05:43:17;;;;;;;13.88;9.48;;;;;;;30.70;73.93;97567.84;5016654;28;20103;-68
2022/07/31 05:46:23;;;;;;;15.63;10.02;;;;;;;30.34;74.43;97559.84;5002675;28;20054;-69
2022/07/31 05:49:13;;;;;;;13.77;9.68;;;;;;;30.82;73.15;97562.88;4992027;28;20072;-70
2022/07/31 05:51:58;;;;;;;12.98;10.35;;;;;;;31.26;73.54;97568.94;5023336;28;20056;-68
2022/07/31 05:54:48;;;;;;;13.00;10.18;;;;;;;31.48;71.52;97572.78;5008577;28;20049;-68
2022/07/31 05:57:55;;;;;;;15.77;10.52;;;;;;;31.48;72.26;97584.66;5019873;28;20068;-68
2022/07/31 06:00:37;;;;;;;12.95;10.38;;;;;;;31.71;72.87;97586.47;4996125;28;20793;-68
2022/07/31 06:03:34;;;;;;;16.10;11.07;;;;;;;31.29;74.46;97579.28;5001833;28;20491;-68
2022/07/31 06:06:38;;;;;;;14.25;10.40;;;;;;;31.46;72.06;97569.56;5004085;28;20049;-66
2022/07/31 06:09:27;;;;;;;14.05;10.07;;;;;;;32.09;71.85;97574.13;5004393;28;20049;-68
2022/07/31 06:12:16;;;;;;;13.48;9.43;;;;;;;32.06;69.85;97574.91;5000423;28;20072;-67
2022/07/31 06:14:59;;;;;;;11.52;9.35;;;;;;;31.57;71.47;97568.53;5000731;28;20041;-69
2022/07/31 06:17:55;;;;;;;14.30;8.85;;;;;;;32.54;70.17;97562.91;4997441;28;20042;-68
2022/07/31 06:20:31;;;;;;;12.32;8.07;;;;;;;31.50;72.88;97570.44;4992408;28;20072;-69
2022/07/31 06:23:20;;;;;;;10.45;7.85;;;;;;;31.60;71.88;97561.41;4990818;28;20475;-67
2022/07/31 06:26:23;;;;;;;12.60;8.80;;;;;;;31.87;71.30;97572.34;4993074;28;20060;-68
2022/07/31 06:29:12;;;;;;;13.95;10.40;;;;;;;32.58;70.39;97566.56;4981549;28;20057;-67
2022/07/31 06:31:54;;;;;;;13.07;10.32;;;;;;;32.31;70.16;97575.09;5003010;28;20057;-68
2022/07/31 06:34:44;;;;;;;15.15;10.57;;;;;;;32.90;71.51;97577.81;5004230;28;20357;-68
2022/07/31 06:37:28;;;;;;;10.65;9.35;;;;;;;32.32;68.36;97575.88;5007560;28;20064;-67
2022/07/31 06:40:17;;;;;;;11.68;9.00;;;;;;;32.63;70.03;97576.50;5001693;28;20054;-68
2022/07/31 06:43:18;;;;;;;7.60;6.15;;;;;;;32.19;68.77;97587.28;5018159;28;20080;-70
2022/07/31 06:46:38;;;;;;;6.90;5.07;;;;;;;31.84;71.24;97573.13;5007965;28;20059;-68
2022/07/31 06:49:47;;;;;;;8.70;5.47;;;;;;;32.30;68.66;97565.16;5010695;28;20221;-66
2022/07/31 06:52:42;;;;;;;5.85;5.25;;;;;;;32.76;67.87;97574.97;5011238;28;20053;-67
2022/07/31 06:55:24;;;;;;;6.15;5.30;;;;;;;32.37;67.57;97581.09;5007179;28;20053;-66
2022/07/31 06:58:13;;;;;;;6.50;5.18;;;;;;;32.46;68.64;97578.75;5023255;28;20061;-68
2022/07/31 07:00:55;;;;;;;5.93;4.93;;;;;;;31.84;67.76;97584.22;5001136;28;20060;-67
2022/07/31 07:03:44;;;;;;;7.07;6.00;;;;;;;31.67;69.07;97589.22;5005773;28;20058;-69
2022/07/31 07:06:26;;;;;;;7.60;4.78;;;;;;;32.07;69.90;97587.59;5009387;28;20041;-68
2022/07/31 07:09:15;;;;;;;7.57;5.65;;;;;;;31.67;68.81;97589.22;4988601;28;20605;-68
2022/07/31 07:12:11;;;;;;;8.43;4.88;;;;;;;32.08;67.67;97580.06;5011147;28;20596;-68
2022/07/31 07:14:51;;;;;;;7.50;5.45;;;;;;;31.99;69.79;97585.94;5010905;28;20064;-68
2022/07/31 07:17:45;;;;;;;9.70;5.20;;;;;;;31.98;67.32;97585.13;4991863;28;20056;-68
2022/07/31 07:20:31;;;;;;;8.32;5.70;;;;;;;31.59;68.67;97595.88;5014992;28;20058;-66
2022/07/31 07:23:21;;;;;;;10.35;6.35;;;;;;;32.28;67.98;97602.84;5002838;28;20060;-66
2022/07/31 07:26:23;;;;;;;8.85;7.00;;;;;;;32.30;68.43;97597.69;5001351;28;20107;-67
2022/07/31 07:29:09;;;;;;;11.20;6.97;;;;;;;33.24;66.47;97577.56;5025092;28;20045;-67
2022/07/31 07:31:58;;;;;;;11.32;7.45;;;;;;;33.51;64.82;97569.69;5011513;28;20045;-68
2022/07/31 07:34:40;;;;;;;10.02;7.70;;;;;;;33.16;66.26;97573.97;5004837;28;20091;-67
2022/07/31 07:37:54;;;;;;;8.57;7.38;;;;;;;33.53;66.02;97588.75;5005629;28;20106;-67
2022/07/31 07:40:36;;;;;;;11.00;8.10;;;;;;;33.28;65.61;97586.72;5008700;28;20056;-68
2022/07/31 07:43:25;;;;;;;13.05;9.65;;;;;;;33.15;64.88;97577.13;5017543;28;20049;-69
2022/07/31 07:46:14;;;;;;;13.05;9.57;;;;;;;32.23;67.81;97589.31;4998604;28;20044;-67
2022/07/31 07:49:06;;;;;;;13.90;10.38;;;;;;;31.85;70.08;97572.72;5022753;28;20046;-69
2022/07/31 07:52:19;;;;;;;13.82;10.63;;;;;;;32.71;67.97;97562.25;5018938;28;20057;-73
2022/07/31 07:55:11;;;;;;;15.85;9.88;;;;;;;33.07;67.85;97554.03;5015210;28;20052;-71
2022/07/31 07:58:24;;;;;;;;;;;;;;;31.66;70.86;97551.53;5018693;28;20045;-73
2022/07/31 08:01:39;;;;;;;13.23;10.53;;;;;;;32.56;69.23;97544.72;5014080;28;19955;-71
2022/07/31 08:04:26;;;;;;;13.27;11.27;;;;;;;32.37;68.50;97531.09;5003580;28;20116;-69
2022/07/31 08:07:21;;;;;;;14.15;10.82;;;;;;;33.04;68.04;97521.50;4999485;28;20046;-69
2022/07/31 08:10:42;;;;;;;12.23;10.55;;;;;;;32.50;69.34;97515.72;5015451;28;20128;-71
2022/07/31 08:13:47;;;;;;;17.02;11.10;;;;;;;32.76;67.77;97509.09;5003555;28;20127;-71
2022/07/31 08:16:49;;;;;;;14.05;10.05;;;;;;;33.11;67.63;97509.63;5018361;28;20054;-72
2022/07/31 08:19:45;;;;;;;17.02;10.32;;;;;;;33.00;68.25;97505.97;5005568;28;20049;-73
2022/07/31 08:22:24;;;;;;;14.82;10.57;;;;;;;32.98;68.05;97511.97;5006696;28;20073;-72
2022/07/31 08:25:19;;;;;;;13.98;10.90;;;;;;;32.33;69.84;97502.50;5022992;28;20636;-72
2022/07/31 08:27:55;;;;;;;14.57;10.55;;;;;;;32.78;69.96;97500.38;5010690;28;20065;-71
2022/07/31 08:30:53;;;;;;;11.32;10.15;;;;;;;33.24;69.20;97480.25;5027462;28;20537;-72
2022/07/31 08:33:31;;;;;;;10.20;8.57;;;;;;;33.01;67.91;97482.56;5010469;28;20137;-75
2022/07/31 08:36:26;;;;;;;;;;;;;;;33.29;68.05;97477.09;5009993;28;20053;-72
2022/07/31 08:39:03;;;;;;;9.02;7.32;;;;;;;32.67;69.52;97482.84;4991539;28;19924;-71
2022/07/31 08:42:12;;;;;;;7.75;6.90;;;;;;;33.09;68.54;97473.84;5017005;28;20054;-71
2022/07/31 08:44:54;;;;;;;8.30;7.32;;;;;;;32.96;67.82;97475.41;4977894;28;20127;-71
2022/07/31 08:47:56;;;;;;;5.93;5.30;;;;;;;33.14;69.11;97476.28;4990156;28;20104;-71
2022/07/31 08:50:53;;;;;;;7.30;5.20;;;;;;;32.18;69.17;97469.13;4990040;28;20050;-71
2022/07/31 08:54:01;;;;;;;5.45;4.68;;;;;;;32.51;68.37;97453.41;5006975;28;20131;-70
2022/07/31 08:56:37;;;;;;;6.10;4.40;;;;;;;32.56;68.32;97433.63;4983546;28;20069;-70
2022/07/31 08:59:26;;;;;;;7.35;4.97;;;;;;;32.32;69.51;97410.09;4994919;28;20057;-71
2022/07/31 09:02:08;;;;;;;5.00;4.03;;;;;;;32.64;68.61;97405.88;4969835;28;20050;-70
2022/07/31 09:05:37;;;;;;;6.88;4.15;;;;;;;32.57;70.02;97404.66;4987031;28;20730;-70
2022/07/31 09:08:22;;;;;;;6.15;4.35;;;;;;;32.60;68.33;97411.44;4979909;28;20041;-74
2022/07/31 09:11:14;;;;;;;4.60;3.75;;;;;;;32.62;67.39;97394.34;4987134;28;20056;-75
2022/07/31 09:14:09;;;;;;;10.27;3.92;;;;;;;32.99;67.65;97387.69;5002574;28;20046;-73
2022/07/31 09:17:14;;;;;;;4.53;4.10;;;;;;;32.24;68.41;97382.72;4999070;28;20080;-70
2022/07/31 09:19:50;;;;;;;6.30;4.35;;;;;;;32.52;69.20;97374.47;4997406;28;20064;-72
2022/07/31 09:22:40;;;;;;;6.55;4.60;;;;;;;32.94;67.54;97366.63;5002807;28;20042;-73
2022/07/31 09:25:22;;;;;;;4.60;3.70;;;;;;;32.94;67.87;97366.63;4970811;28;20064;-76
2022/07/31 09:28:11;;;;;;;6.32;3.90;;;;;;;32.73;67.28;97345.16;4995053;28;20050;-73
2022/07/31 09:31:01;;;;;;;8.55;4.30;;;;;;;32.52;67.59;97341.16;4982664;28;20138;-71
2022/07/31 09:34:10;;;;;;;5.88;3.75;;;;;;;32.58;67.40;97322.94;4995299;28;20053;-74
2022/07/31 09:37:15;;;;;;;6.15;4.00;;;;;;;32.44;69.04;97316.53;4978916;28;20827;-77
2022/07/31 09:40:34;;;;;;;8.40;3.97;;;;;;;32.80;67.96;97327.72;4950050;28;20141;-75
2022/07/31 09:44:06;;;;;;;5.63;4.15;;;;;;;32.96;67.62;97330.88;4988448;28;20081;-74
2022/07/31 09:46:55;;;;;;;4.13;3.70;;;;;;;32.70;67.08;97340.41;5007585;28;20042;-77
2022/07/31 09:49:55;;;;;;;7.90;4.13;;;;;;;32.18;67.57;97333.13;4998318;28;20053;-75
2022/07/31 09:52:52;;;;;;;7.85;4.07;;;;;;;32.56;67.19;97328.09;5015829;28;20147;-76
2022/07/31 09:55:56;;;;;;;5.50;4.15;;;;;;;33.08;66.92;97338.06;5005433;28;20128;-75
2022/07/31 09:58:46;;;;;;;7.53;4.43;;;;;;;33.35;67.13;97330.13;5000529;28;20473;-74
2022/07/31 10:01:35;;;;;;;8.95;4.55;;;;;;;33.44;66.03;97321.34;5012438;28;20410;-75
2022/07/31 10:04:25;;;;;;;6.07;3.92;;;;;;;33.15;65.24;97310.25;4997836;28;20061;-75
2022/07/31 10:07:07;;;;;;;5.90;4.20;;;;;;;32.93;65.61;97304.69;4995844;28;20059;-74
2022/07/31 10:10:19;;;;;;;9.45;3.90;;;;;;;32.87;65.87;97305.50;5019566;28;20143;-74
2022/07/31 10:13:14;;;;;;;6.70;3.67;;;;;;;32.18;68.27;97305.34;5024628;28;20038;-74
2022/07/31 10:16:06;;;;;;;4.20;3.60;;;;;;;32.85;66.46;97292.00;5001295;28;20052;-74
2022/07/31 10:19:14;;;;;;;7.55;4.10;;;;;;;33.06;66.44;97287.63;5007449;28;20076;-74
2022/07/31 10:22:10;;;;;;;5.45;3.78;;;;;;;33.05;65.42;97289.59;5004604;28;20057;-75
2022/07/31 10:25:02;;;;;;;9.52;4.20;;;;;;;32.80;66.06;97294.38;4988834;28;20061;-73
2022/07/31 10:27:45;;;;;;;6.78;4.13;;;;;;;32.75;66.48;97298.34;5005037;28;20078;-75
2022/07/31 10:30:35;;;;;;;5.45;4.28;;;;;;;32.73;66.23;97300.72;4988841;28;20465;-74
2022/07/31 10:33:25;;;;;;;5.75;3.95;;;;;;;32.97;65.34;97285.25;5004838;28;20062;-74
2022/07/31 10:36:47;;;;;;;8.43;4.38;;;;;;;32.55;67.16;97284.78;4994517;28;20774;-73
2022/07/31 10:40:06;;;;;;;6.40;4.82;;;;;;;32.67;67.42;97291.19;5009643;28;20057;-74
2022/07/31 10:43:27;;;;;;;5.65;3.90;;;;;;;32.39;68.11;97276.06;4994741;28;20123;-74
2022/07/31 10:46:39;;;;;;;5.97;4.47;;;;;;;32.34;69.09;97277.22;4999292;28;20049;-74
2022/07/31 10:49:49;;;;;;;6.22;4.03;;;;;;;32.32;69.17;97270.50;5001647;28;20460;-73
2022/07/31 10:53:00;;;;;;;9.68;5.22;;;;;;;32.65;69.84;97282.47;4974036;28;20038;-75
2022/07/31 10:56:09;;;;;;;7.45;4.97;;;;;;;32.54;69.36;97297.13;4993324;28;20132;-74
2022/07/31 10:59:06;;;;;;;10.63;6.28;;;;;;;32.15;68.54;97306.13;4988530;28;20049;-74
2022/07/31 11:02:06;;;;;;;8.18;5.90;;;;;;;32.34;69.08;97293.09;4978699;28;20060;-73
2022/07/31 11:05:28;;;;;;;11.52;6.70;;;;;;;32.40;69.17;97294.28;4979609;28;20385;-74
2022/07/31 11:08:17;;;;;;;12.57;8.63;;;;;;;32.34;69.43;97298.66;4987896;28;20107;-72
2022/07/31 11:11:15;;;;;;;11.57;9.63;;;;;;;32.28;69.25;97303.00;5004381;28;20058;-75
2022/07/31 11:14:13;;;;;;;14.75;10.98;;;;;;;32.13;69.82;97302.94;4997390;28;20053;-75
2022/07/31 11:17:41;;;;;;;16.67;11.77;;;;;;;32.29;69.61;97299.03;5004799;28;20054;-75
2022/07/31 11:21:01;;;;;;;14.00;12.50;;;;;;;32.11;70.06;97299.78;4985860;28;20057;-75
2022/07/31 11:24:27;;;;;;;17.35;13.25;;;;;;;32.03;70.71;97317.59;4996316;28;20064;-76
2022/07/31 11:27:22;;;;;;;18.77;12.48;;;;;;;31.96;70.41;97315.53;5000749;28;20054;-72
2022/07/31 11:30:08;;;;;;;13.45;11.13;;;;;;;31.93;70.51;97310.78;5003017;28;20038;-71
2022/07/31 11:32:57;;;;;;;16.75;9.60;;;;;;;31.79;71.88;97302.41;5002784;28;20111;-75
2022/07/31 11:35:51;;;;;;;8.50;6.97;;;;;;;31.83;70.93;97288.53;4999000;28;20651;-73
2022/07/31 11:38:52;;;;;;;8.07;6.85;;;;;;;31.67;72.11;97286.91;5008045;28;20054;-70
2022/07/31 11:41:29;;;;;;;11.38;6.25;;;;;;;31.41;73.04;97269.31;5009049;28;20050;-73
2022/07/31 11:44:24;;;;;;;8.73;6.40;;;;;;;31.39;72.85;97246.72;5008203;28;20078;-71
2022/07/31 11:47:06;;;;;;;8.05;5.10;;;;;;;31.78;72.72;97231.47;5007987;28;20062;-72
2022/07/31 11:50:21;;;;;;;9.25;5.57;;;;;;;31.37;73.56;97235.22;5004541;28;20161;-69
2022/07/31 11:53:05;;;;;;;10.52;5.72;;;;;;;31.33;73.48;97234.41;5007797;28;20057;-71
2022/07/31 11:55:56;;;;;;;7.10;4.57;;;;;;;31.36;73.78;97230.88;5004307;28;20158;-69
2022/07/31 11:58:40;;;;;;;15.10;5.07;;;;;;;31.31;73.19;97234.00;4999535;28;20056;-68
2022/07/31 12:01:28;;;;;;;9.15;5.32;;;;;;;31.07;74.50;97237.41;4996481;28;20116;-68
2022/07/31 12:04:11;;;;;;;8.30;5.00;;;;;;;31.21;74.09;97243.06;5001830;28;20050;-68
2022/07/31 12:07:07;;;;;;;8.85;5.30;;;;;;;31.58;73.15;97237.31;4999736;28;20050;-69
2022/07/31 12:09:44;;;;;;;8.20;5.13;;;;;;;31.58;72.63;97240.09;4998529;28;20042;-70
2022/07/31 12:12:48;;;;;;;7.30;5.20;;;;;;;31.87;72.86;97233.88;4997266;28;20049;-69
2022/07/31 12:15:24;;;;;;;6.90;4.65;;;;;;;31.30;74.98;97224.09;4995384;28;20042;-69
2022/07/31 12:18:12;;;;;;;10.25;6.03;;;;;;;31.44;75.06;97230.91;4998515;28;20053;-70
2022/07/31 12:21:07;;;;;;;8.75;5.88;;;;;;;31.18;75.58;97221.66;5002771;28;20058;-70
2022/07/31 12:23:57;;;;;;;12.18;7.55;;;;;;;31.00;76.41;97225.09;4998070;28;20046;-75
2022/07/31 12:26:54;;;;;;;15.65;5.47;;;;;;;31.16;76.65;97221.25;5003597;28;20074;-71
2022/07/31 12:29:39;;;;;;;11.40;5.30;;;;;;;31.14;75.97;97231.91;5003763;28;20473;-69
2022/07/31 12:32:32;;;;;;;11.55;6.30;;;;;;;30.81;77.75;97242.75;5006447;28;20054;-72
2022/07/31 12:35:14;;;;;;;10.30;6.43;;;;;;;30.76;77.32;97256.94;5006688;28;20053;-71
2022/07/31 12:38:03;;;;;;;6.47;5.85;;;;;;;31.12;76.99;97273.88;4987604;28;20482;-71
2022/07/31 12:41:06;;;;;;;9.37;6.10;;;;;;;31.26;77.01;97302.84;4969885;28;20046;-71
2022/07/31 12:43:55;;;;;;;13.65;6.93;;;;;;;31.40;76.64;97334.25;4987598;28;20112;-70
2022/07/31 12:46:37;;;;;;;9.85;6.03;;;;;;;31.57;76.60;97357.75;4994597;28;20058;-70
2022/07/31 12:49:32;;;;;;;13.23;7.50;;;;;;;31.58;76.00;97370.44;4985905;28;20485;-71
2022/07/31 12:52:22;;;;;;;11.93;7.35;;;;;;;31.47;76.92;97374.31;4993361;28;20045;-71
2022/07/31 12:55:11;;;;;;;12.10;7.40;;;;;;;31.34;77.30;97371.84;5007116;28;20058;-71
2022/07/31 12:57:56;;;;;;;11.88;6.95;;;;;;;31.37;77.79;97373.81;5007181;28;20061;-69
2022/07/31 13:00:45;;;;;;;11.57;7.35;;;;;;;31.38;77.13;97375.41;5004049;28;20054;-69
2022/07/31 13:03:27;;;;;;;8.98;7.25;;;;;;;31.32;78.18;97376.97;4991336;28;20130;-71
2022/07/31 13:06:26;;;;;;;11.80;7.60;;;;;;;30.89;79.23;97376.56;5008651;28;20054;-73
2022/07/31 13:09:09;;;;;;;12.85;8.55;;;;;;;30.85;79.79;97350.81;4997531;28;20082;-73
2022/07/31 13:11:58;;;;;;;11.98;9.02;;;;;;;30.81;80.30;97348.00;4988653;28;20137;-73
2022/07/31 13:14:40;;;;;;;14.55;11.18;;;;;;;30.66;80.41;97340.75;4987002;28;20370;-71
2022/07/31 13:17:29;;;;;;;17.50;12.05;;;;;;;30.74;79.98;97336.06;4648280;28;10000430;-73
2022/07/31 13:20:24;;;;;;;18.45;12.00;;;;;;;30.64;79.24;97326.47;5001335;28;20075;-72
2022/07/31 13:23:06;;;;;;;23.63;13.00;;;;;;;30.91;78.93;97332.69;4992987;28;20054;-71
2022/07/31 13:25:58;;;;;;;21.60;13.00;;;;;;;31.03;78.68;97343.50;4984589;28;20054;-70